createdAt,value
2022-08-08T00:00:56.445Z,23.03
2022-08-08T00:03:34.076Z,23.01
2022-08-08T00:06:09.658Z,22.99
2022-08-08T00:08:48.880Z,23.00
2022-08-08T00:12:02.803Z,22.99
2022-08-08T00:14:48.503Z,22.99
2022-08-08T00:18:03.293Z,22.98
2022-08-08T00:20:33.429Z,22.99
2022-08-08T00:23:06.225Z,22.99
2022-08-08T00:25:44.926Z,22.99
2022-08-08T00:28:35.211Z,23.00
2022-08-08T00:32:20.713Z,23.00
2022-08-08T00:34:18.118Z,22.98
2022-08-08T00:36:51.637Z,22.98
2022-08-08T00:41:07.076Z,22.98
2022-08-08T00:42:30.261Z,22.99
2022-08-08T00:45:27.066Z,22.98
2022-08-08T00:48:02.142Z,22.98
2022-08-08T00:50:36.041Z,22.96
2022-08-08T00:53:24.323Z,22.96
2022-08-08T00:56:11.204Z,22.96
2022-08-08T00:58:54.516Z,22.95
2022-08-08T01:01:39.367Z,22.94
2022-08-08T01:04:29.877Z,22.91
2022-08-08T01:07:34.482Z,22.91
2022-08-08T01:10:52.426Z,22.89
2022-08-08T01:13:53.115Z,22.89
2022-08-08T01:16:37.356Z,22.88
2022-08-08T01:19:52.344Z,22.87
2022-08-08T01:22:44.723Z,22.85
2022-08-08T01:25:40.158Z,22.85
2022-08-08T01:28:34.764Z,22.86
2022-08-08T01:32:13.741Z,22.85
2022-08-08T01:34:54.696Z,22.88
2022-08-08T01:37:56.916Z,22.90
2022-08-08T01:40:37.628Z,22.90
2022-08-08T01:43:10.158Z,22.88
2022-08-08T01:46:00.390Z,22.87
2022-08-08T01:48:48.283Z,22.87
2022-08-08T01:52:43.812Z,22.87
2022-08-08T01:56:08.767Z,22.87
2022-08-08T01:57:21.569Z,22.86
2022-08-08T02:00:24.931Z,22.84
2022-08-08T02:03:54.426Z,22.81
2022-08-08T02:06:59.445Z,22.80
2022-08-08T02:10:04.205Z,22.80
2022-08-08T02:13:53.243Z,22.79
2022-08-08T02:16:35.608Z,22.77
2022-08-08T02:19:56.882Z,22.76
2022-08-08T02:22:31.856Z,22.78
2022-08-08T02:25:28.223Z,22.79
2022-08-08T02:28:11.196Z,22.80
2022-08-08T02:31:53.995Z,22.78
2022-08-08T02:35:07.660Z,22.79
2022-08-08T02:37:52.278Z,22.78
2022-08-08T02:40:38.135Z,22.79
2022-08-08T02:44:38.061Z,22.74
2022-08-08T02:47:17.050Z,22.74
2022-08-08T02:50:22.207Z,22.76
2022-08-08T02:53:21.561Z,22.75
2022-08-08T02:56:08.794Z,22.74
2022-08-08T02:59:17.189Z,22.73
2022-08-08T03:02:44.016Z,22.75
2022-08-08T03:05:47.293Z,22.74
2022-08-08T03:08:34.043Z,22.75
2022-08-08T03:11:47.778Z,22.75
2022-08-08T03:15:56.571Z,22.72
2022-08-08T03:17:41.289Z,22.71
2022-08-08T03:20:10.518Z,22.70
2022-08-08T03:22:48.199Z,22.69
2022-08-08T03:25:33.859Z,22.65
2022-08-08T03:28:19.038Z,22.64
2022-08-08T03:30:48.940Z,22.64
2022-08-08T03:33:55.190Z,22.64
2022-08-08T03:36:05.324Z,22.64
2022-08-08T03:38:58.464Z,22.64
2022-08-08T03:42:12.052Z,22.64
2022-08-08T03:44:17.798Z,22.64
2022-08-08T03:46:47.468Z,22.62
2022-08-08T03:49:58.847Z,22.62
2022-08-08T03:52:05.300Z,22.62
2022-08-08T03:54:51.612Z,22.61
2022-08-08T03:58:30.720Z,22.64
2022-08-08T04:00:18.181Z,22.62
2022-08-08T04:02:57.011Z,22.63
2022-08-08T04:05:36.284Z,22.60
2022-08-08T04:08:06.820Z,22.61
2022-08-08T04:10:34.445Z,22.60
2022-08-08T04:13:08.201Z,22.59
2022-08-08T04:16:03.872Z,22.61
2022-08-08T04:18:31.596Z,22.60
2022-08-08T04:20:58.751Z,22.59
2022-08-08T04:23:25.283Z,22.57
2022-08-08T04:26:04.086Z,22.57
2022-08-08T04:28:40.565Z,22.57
2022-08-08T04:31:09.405Z,22.55
2022-08-08T04:33:42.057Z,22.56
2022-08-08T04:36:08.762Z,22.57
2022-08-08T04:38:35.277Z,22.56
2022-08-08T04:41:02.030Z,22.53
2022-08-08T04:43:32.342Z,22.53
2022-08-08T04:46:14.531Z,22.54
2022-08-08T04:48:41.422Z,22.55
2022-08-08T04:51:09.071Z,22.53
2022-08-08T04:54:36.541Z,22.53
2022-08-08T04:56:23.115Z,22.55
2022-08-08T04:58:50.615Z,22.58
2022-08-08T05:01:17.383Z,22.57
2022-08-08T05:04:09.956Z,22.58
2022-08-08T05:06:31.065Z,22.60
2022-08-08T05:09:02.831Z,22.60
2022-08-08T05:11:39.481Z,22.62
2022-08-08T05:14:08.523Z,22.61
2022-08-08T05:16:55.001Z,22.62
2022-08-08T05:20:09.841Z,22.63
2022-08-08T05:22:12.004Z,22.65
2022-08-08T05:24:38.853Z,22.64
2022-08-08T05:27:06.771Z,22.66
2022-08-08T05:29:35.822Z,22.67
2022-08-08T05:32:06.618Z,22.66
2022-08-08T05:34:36.886Z,22.69
2022-08-08T05:37:16.263Z,22.69
2022-08-08T05:39:55.560Z,22.70
2022-08-08T05:42:41.294Z,22.70
2022-08-08T05:45:10.312Z,22.70
2022-08-08T05:48:01.370Z,22.73
2022-08-08T05:50:36.098Z,22.74
2022-08-08T05:53:55.362Z,22.74
2022-08-08T05:56:11.576Z,22.78
2022-08-08T05:58:36.514Z,22.77
2022-08-08T06:01:03.386Z,22.75
2022-08-08T06:03:31.651Z,22.80
2022-08-08T06:06:05.092Z,22.82
2022-08-08T06:08:54.636Z,22.84
2022-08-08T06:11:21.734Z,22.83
2022-08-08T06:13:49.253Z,22.81
2022-08-08T06:16:16.920Z,22.83
2022-08-08T06:18:45.777Z,22.85
2022-08-08T06:21:32.342Z,22.86
2022-08-08T06:24:03.455Z,22.86
2022-08-08T06:26:44.562Z,22.86
2022-08-08T06:29:49.532Z,22.86
2022-08-08T06:32:15.332Z,22.87
2022-08-08T06:34:56.620Z,22.89
2022-08-08T06:37:37.374Z,22.88
2022-08-08T06:40:12.820Z,22.89
2022-08-08T06:42:52.165Z,22.88
2022-08-08T06:45:21.404Z,22.88
2022-08-08T06:47:52.136Z,22.86
2022-08-08T06:50:31.414Z,22.89
2022-08-08T06:53:01.355Z,22.89
2022-08-08T06:55:41.738Z,22.88
2022-08-08T06:58:08.574Z,22.92
2022-08-08T07:00:36.162Z,23.00
2022-08-08T07:03:09.757Z,23.02
2022-08-08T07:06:01.836Z,23.05
2022-08-08T07:08:34.837Z,23.09
2022-08-08T07:11:01.317Z,23.11
2022-08-08T07:13:39.245Z,23.13
2022-08-08T07:16:51.262Z,23.15
2022-08-08T07:19:44.389Z,23.15
2022-08-08T07:22:18.801Z,23.16
2022-08-08T07:24:52.843Z,23.19
2022-08-08T07:27:35.526Z,23.18
2022-08-08T07:30:14.896Z,23.21
2022-08-08T07:32:44.679Z,23.23
2022-08-08T07:35:15.021Z,23.23
2022-08-08T07:37:56.532Z,23.24
2022-08-08T07:40:29.053Z,23.25
2022-08-08T07:42:56.724Z,23.27
2022-08-08T07:45:23.536Z,23.29
2022-08-08T07:50:21.955Z,23.30
2022-08-08T07:52:57.680Z,23.30
2022-08-08T07:55:29.272Z,23.33
2022-08-08T07:58:16.689Z,23.36
2022-08-08T08:00:50.384Z,23.34
2022-08-08T08:03:23.732Z,23.36
2022-08-08T08:05:51.772Z,23.37
2022-08-08T08:08:20.913Z,23.38
2022-08-08T08:10:50.992Z,23.39
2022-08-08T08:13:42.918Z,23.40
2022-08-08T08:16:19.399Z,23.41
2022-08-08T08:18:55.882Z,23.44
2022-08-08T08:21:35.515Z,23.44
2022-08-08T08:24:10.668Z,23.44
2022-08-08T08:26:39.029Z,23.46
2022-08-08T08:29:16.554Z,23.49
2022-08-08T08:31:45.989Z,23.49
2022-08-08T08:34:23.868Z,23.52
2022-08-08T08:36:58.824Z,23.55
2022-08-08T08:39:25.388Z,23.56
2022-08-08T08:42:12.009Z,23.56
2022-08-08T08:44:39.910Z,23.56
2022-08-08T08:47:08.956Z,23.59
2022-08-08T08:49:36.921Z,23.61
2022-08-08T08:52:10.026Z,23.63
2022-08-08T08:54:38.511Z,23.64
2022-08-08T08:57:14.491Z,23.63
2022-08-08T08:59:59.991Z,23.66
2022-08-08T09:02:30.519Z,23.68
2022-08-08T09:04:59.316Z,23.65
2022-08-08T09:07:39.241Z,23.70
2022-08-08T09:10:17.493Z,23.70
2022-08-08T09:12:46.166Z,23.71
2022-08-08T09:15:12.918Z,23.73
2022-08-08T09:17:52.346Z,23.74
2022-08-08T09:22:00.862Z,23.76
2022-08-08T09:23:11.209Z,23.75
2022-08-08T09:25:54.563Z,23.74
2022-08-08T09:28:37.244Z,23.76
2022-08-08T09:31:14.906Z,23.79
2022-08-08T09:34:15.442Z,23.82
2022-08-08T09:36:36.067Z,23.83
2022-08-08T09:39:10.067Z,23.84
2022-08-08T09:41:54.931Z,23.87
2022-08-08T09:45:04.006Z,23.87
2022-08-08T09:48:09.828Z,23.89
2022-08-08T09:50:28.308Z,23.89
2022-08-08T09:52:58.416Z,23.93
2022-08-08T09:55:51.423Z,23.93
2022-08-08T09:58:26.142Z,23.93
2022-08-08T10:01:02.714Z,23.93
2022-08-08T10:03:41.216Z,23.92
2022-08-08T10:06:17.607Z,23.95
2022-08-08T10:08:47.817Z,23.96
2022-08-08T10:12:26.351Z,23.98
2022-08-08T10:14:28.343Z,23.98
2022-08-08T10:16:58.643Z,23.98
2022-08-08T10:19:45.862Z,23.95
2022-08-08T10:22:20.862Z,23.93
2022-08-08T10:24:47.700Z,23.92
2022-08-08T10:27:15.130Z,23.94
2022-08-08T10:30:01.337Z,23.99
2022-08-08T10:32:39.062Z,24.01
2022-08-08T10:35:20.147Z,24.02
2022-08-08T10:38:02.525Z,24.02
2022-08-08T10:40:32.532Z,24.05
2022-08-08T10:43:01.876Z,24.07
2022-08-08T10:45:28.475Z,24.08
2022-08-08T10:47:56.997Z,24.07
2022-08-08T10:50:35.345Z,24.09
2022-08-08T10:53:07.503Z,24.08
2022-08-08T10:55:40.480Z,24.10
2022-08-08T10:58:11.980Z,24.10
2022-08-08T11:00:48.614Z,24.12
2022-08-08T11:03:36.952Z,24.11
2022-08-08T11:06:16.660Z,24.08
2022-08-08T11:08:53.133Z,24.07
2022-08-08T11:11:32.651Z,24.08
2022-08-08T11:14:08.090Z,24.09
2022-08-08T11:16:42.372Z,24.13
2022-08-08T11:19:15.755Z,24.13
2022-08-08T11:21:56.175Z,24.10
2022-08-08T11:24:23.682Z,24.08
2022-08-08T11:26:56.981Z,24.11
2022-08-08T11:29:23.825Z,24.12
2022-08-08T11:32:08.049Z,24.12
2022-08-08T11:34:52.454Z,24.09
2022-08-08T11:38:39.569Z,24.09
2022-08-08T11:40:11.638Z,24.09
2022-08-08T11:42:38.822Z,24.09
2022-08-08T11:45:08.305Z,24.09
2022-08-08T11:47:39.878Z,24.07
2022-08-08T11:50:23.159Z,24.10
2022-08-08T11:52:50.990Z,24.12
2022-08-08T11:55:28.680Z,24.13
2022-08-08T11:58:14.679Z,24.13
2022-08-08T12:00:50.980Z,24.14
2022-08-08T12:03:21.212Z,24.15
2022-08-08T12:05:48.128Z,24.17
2022-08-08T12:08:14.693Z,24.16
2022-08-08T12:10:51.584Z,24.16
2022-08-08T12:13:37.668Z,24.16
2022-08-08T12:16:17.651Z,24.17
2022-08-08T12:18:52.027Z,24.15
2022-08-08T12:21:59.896Z,24.13
2022-08-08T12:24:21.501Z,24.11
2022-08-08T12:26:54.904Z,24.13
2022-08-08T12:29:40.156Z,24.10
2022-08-08T12:32:13.404Z,24.10
2022-08-08T12:35:04.852Z,24.09
2022-08-08T12:38:01.039Z,24.12
2022-08-08T12:41:00.955Z,24.13
2022-08-08T12:43:46.475Z,24.14
2022-08-08T12:46:25.064Z,24.13
2022-08-08T12:49:25.018Z,24.09
2022-08-08T12:51:50.029Z,24.10
2022-08-08T12:54:35.751Z,24.09
2022-08-08T12:57:20.857Z,24.08
2022-08-08T13:00:04.729Z,24.08
2022-08-08T13:02:37.833Z,24.07
2022-08-08T13:05:26.508Z,24.07
2022-08-08T13:08:15.845Z,24.07
2022-08-08T13:10:56.871Z,24.05
2022-08-08T13:13:35.413Z,24.03
2022-08-08T13:16:25.818Z,24.02
2022-08-08T13:18:58.379Z,24.03
2022-08-08T13:21:48.982Z,24.03
2022-08-08T13:24:20.864Z,24.01
2022-08-08T13:27:06.049Z,24.00
2022-08-08T13:29:47.953Z,23.98
2022-08-08T13:32:14.767Z,24.00
2022-08-08T13:34:41.954Z,23.97
2022-08-08T13:37:11.096Z,23.96
2022-08-08T13:39:55.609Z,23.96
2022-08-08T13:42:23.206Z,23.96
2022-08-08T13:44:55.480Z,23.96
2022-08-08T13:47:22.914Z,23.95
2022-08-08T13:50:36.901Z,23.94
2022-08-08T13:52:55.623Z,23.95
2022-08-08T13:55:29.685Z,23.94
2022-08-08T13:58:07.721Z,23.95
2022-08-08T14:00:45.003Z,23.94
2022-08-08T14:03:38.364Z,23.94
2022-08-08T14:06:08.547Z,23.95
2022-08-08T14:08:56.733Z,23.94
2022-08-08T14:11:29.702Z,23.94
2022-08-08T14:14:00.623Z,23.95
2022-08-08T14:16:28.904Z,23.95
2022-08-08T14:18:57.879Z,23.95
2022-08-08T14:21:48.842Z,23.95
2022-08-08T14:24:34.025Z,23.96
2022-08-08T14:27:01.522Z,23.94
2022-08-08T14:29:30.517Z,23.95
2022-08-08T14:32:09.371Z,23.96
2022-08-08T14:34:37.607Z,23.95
2022-08-08T14:37:06.058Z,23.94
2022-08-08T14:39:47.882Z,23.95
2022-08-08T14:42:16.756Z,23.93
2022-08-08T14:44:53.553Z,23.92
2022-08-08T14:47:21.593Z,23.91
2022-08-08T14:50:06.858Z,23.91
2022-08-08T14:53:05.183Z,23.91
2022-08-08T14:55:41.551Z,23.91
2022-08-08T14:58:11.864Z,23.90
2022-08-08T15:00:43.594Z,23.90
2022-08-08T15:03:14.722Z,23.90
2022-08-08T15:05:54.141Z,23.88
2022-08-08T15:08:35.107Z,23.89
2022-08-08T15:11:06.792Z,23.89
2022-08-08T15:13:39.663Z,23.88
2022-08-08T15:16:12.228Z,23.87
2022-08-08T15:18:49.886Z,23.88
2022-08-08T15:21:16.773Z,23.88
2022-08-08T15:23:43.331Z,23.88
2022-08-08T15:26:13.003Z,23.89
2022-08-08T15:28:39.768Z,23.88
2022-08-08T15:31:06.298Z,23.89
2022-08-08T15:33:35.594Z,23.88
2022-08-08T15:36:05.604Z,23.88
2022-08-08T15:38:32.584Z,23.88
2022-08-08T15:40:59.372Z,23.89
2022-08-08T15:43:35.728Z,23.87
2022-08-08T15:46:03.424Z,23.86
2022-08-08T15:48:29.957Z,23.82
2022-08-08T15:51:06.311Z,23.84
2022-08-08T15:53:49.168Z,23.85
2022-08-08T15:56:16.773Z,23.84
2022-08-08T15:58:48.886Z,23.83
2022-08-08T16:01:16.219Z,23.82
2022-08-08T16:03:42.753Z,23.83
2022-08-08T16:06:14.325Z,23.82
2022-08-08T16:09:02.487Z,23.82
2022-08-08T16:13:02.803Z,23.82
2022-08-08T16:14:16.091Z,23.82
2022-08-08T16:16:59.486Z,23.82
2022-08-08T16:19:26.232Z,23.81
2022-08-08T16:21:54.022Z,23.83
2022-08-08T16:24:22.906Z,23.81
2022-08-08T16:26:50.784Z,23.81
2022-08-08T16:29:19.407Z,23.80
2022-08-08T16:32:04.081Z,23.80
2022-08-08T16:34:37.823Z,23.80
2022-08-08T16:37:06.180Z,23.81
2022-08-08T16:40:02.656Z,23.79
2022-08-08T16:42:19.583Z,23.79
2022-08-08T16:44:47.339Z,23.78
2022-08-08T16:47:40.703Z,23.78
2022-08-08T16:50:15.073Z,23.77
2022-08-08T16:55:18.389Z,23.77
2022-08-08T16:55:53.076Z,23.76
2022-08-08T16:58:20.897Z,23.76
2022-08-08T17:00:48.958Z,23.75
2022-08-08T17:03:25.209Z,23.75
2022-08-08T17:06:05.855Z,23.75
2022-08-08T17:08:52.381Z,23.74
2022-08-08T17:11:19.849Z,23.73
2022-08-08T17:14:01.100Z,23.71
2022-08-08T17:16:28.678Z,23.73
2022-08-08T17:18:55.343Z,23.73
2022-08-08T17:21:21.851Z,23.74
2022-08-08T17:24:01.301Z,23.73
2022-08-08T17:26:30.056Z,23.74
2022-08-08T17:28:57.398Z,23.74
2022-08-08T17:31:44.829Z,23.73
2022-08-08T17:34:48.796Z,23.74
2022-08-08T17:37:03.059Z,23.71
2022-08-08T17:40:04.297Z,23.72
2022-08-08T17:42:17.940Z,23.71
2022-08-08T17:44:45.190Z,23.71
2022-08-08T17:47:23.405Z,23.70
2022-08-08T17:49:52.551Z,23.70
2022-08-08T17:52:19.959Z,23.70
2022-08-08T17:54:51.899Z,23.69
2022-08-08T17:57:22.992Z,23.68
2022-08-08T17:59:49.474Z,23.69
2022-08-08T18:02:21.271Z,23.67
2022-08-08T18:04:50.265Z,23.68
2022-08-08T18:08:02.259Z,23.66
2022-08-08T18:10:04.056Z,23.66
2022-08-08T18:12:30.631Z,23.64
2022-08-08T18:14:57.552Z,23.62
2022-08-08T18:18:04.748Z,23.63
2022-08-08T18:20:43.456Z,23.62
2022-08-08T18:23:00.074Z,23.63
2022-08-08T18:25:26.551Z,23.59
2022-08-08T18:28:03.782Z,23.60
2022-08-08T18:30:30.311Z,23.59
2022-08-08T18:32:58.463Z,23.60
2022-08-08T18:35:25.195Z,23.59
2022-08-08T18:38:03.689Z,23.59
2022-08-08T18:40:43.278Z,23.58
2022-08-08T18:43:16.171Z,23.57
2022-08-08T18:46:08.531Z,23.56
2022-08-08T18:48:29.962Z,23.59
2022-08-08T18:50:58.187Z,23.59
2022-08-08T18:53:25.704Z,23.59
2022-08-08T18:56:25.208Z,23.58
2022-08-08T18:58:53.526Z,23.57
2022-08-08T19:02:26.771Z,23.56
2022-08-08T19:04:10.922Z,23.58
2022-08-08T19:06:39.365Z,23.56
2022-08-08T19:09:13.293Z,23.53
2022-08-08T19:11:46.302Z,23.51
2022-08-08T19:14:13.772Z,23.52
2022-08-08T19:16:47.397Z,23.52
2022-08-08T19:19:14.772Z,23.49
2022-08-08T19:21:48.633Z,23.48
2022-08-08T19:24:38.056Z,23.47
2022-08-08T19:27:02.998Z,23.47
2022-08-08T19:29:30.538Z,23.46
2022-08-08T19:31:57.392Z,23.43
2022-08-08T19:34:35.941Z,23.43
2022-08-08T19:37:05.492Z,23.42
2022-08-08T19:39:35.259Z,23.39
2022-08-08T19:42:03.629Z,23.41
2022-08-08T19:44:43.140Z,23.44
2022-08-08T19:47:12.604Z,23.44
2022-08-08T19:49:39.359Z,23.44
2022-08-08T19:52:10.506Z,23.44
2022-08-08T19:54:38.695Z,23.44
2022-08-08T19:57:07.791Z,23.45
2022-08-08T19:59:35.203Z,23.45
2022-08-08T20:02:04.536Z,23.44
2022-08-08T20:04:33.224Z,23.42
2022-08-08T20:07:03.603Z,23.40
2022-08-08T20:09:32.219Z,23.37
2022-08-08T20:11:59.033Z,23.37
2022-08-08T20:14:34.338Z,23.37
2022-08-08T20:17:02.667Z,23.35
2022-08-08T20:19:33.503Z,23.36
2022-08-08T20:22:03.225Z,23.36
2022-08-08T20:24:31.742Z,23.32
2022-08-08T20:26:58.239Z,23.33
2022-08-08T20:29:25.902Z,23.34
2022-08-08T20:32:13.281Z,23.32
2022-08-08T20:34:47.592Z,23.32
2022-08-08T20:37:14.482Z,23.31
2022-08-08T20:39:51.147Z,23.35
2022-08-08T20:42:28.610Z,23.34
2022-08-08T20:44:55.939Z,23.35
2022-08-08T20:47:23.524Z,23.36
2022-08-08T20:49:50.840Z,23.36
2022-08-08T20:52:21.724Z,23.36
2022-08-08T20:54:49.867Z,23.35
2022-08-08T20:57:20.869Z,23.36
2022-08-08T20:59:47.790Z,23.36
2022-08-08T21:02:19.757Z,23.35
2022-08-08T21:04:52.853Z,23.35
2022-08-08T21:07:30.953Z,23.35
2022-08-08T21:10:12.891Z,23.33
2022-08-08T21:12:44.669Z,23.34
2022-08-08T21:15:16.569Z,23.35
2022-08-08T21:17:59.512Z,23.34
2022-08-08T21:20:34.357Z,23.33
2022-08-08T21:23:02.274Z,23.34
2022-08-08T21:25:29.114Z,23.31
2022-08-08T21:28:14.600Z,23.32
2022-08-08T21:30:42.649Z,23.30
2022-08-08T21:33:11.930Z,23.29
2022-08-08T21:36:18.258Z,23.28
2022-08-08T21:38:25.050Z,23.28
2022-08-08T21:40:56.414Z,23.25
2022-08-08T21:43:33.514Z,23.25
2022-08-08T21:48:08.837Z,23.23
2022-08-08T21:48:51.492Z,23.20
2022-08-08T21:51:46.043Z,23.20
2022-08-08T21:54:32.731Z,23.20
2022-08-08T21:56:53.734Z,23.20
2022-08-08T21:59:20.963Z,23.19
2022-08-08T22:01:52.182Z,23.20
2022-08-08T22:04:22.382Z,23.19
2022-08-08T22:06:51.675Z,23.21
2022-08-08T22:09:18.289Z,23.21
2022-08-08T22:12:02.397Z,23.22
2022-08-08T22:14:33.212Z,23.23
2022-08-08T22:17:01.240Z,23.23
2022-08-08T22:19:29.432Z,23.23
2022-08-08T22:21:56.788Z,23.23
2022-08-08T22:24:28.275Z,23.23
2022-08-08T22:27:01.796Z,23.23
2022-08-08T22:30:01.489Z,23.22
2022-08-08T22:32:18.266Z,23.20
2022-08-08T22:34:50.494Z,23.19
2022-08-08T22:37:49.890Z,23.18
2022-08-08T22:40:05.706Z,23.17
2022-08-08T22:42:34.589Z,23.18
2022-08-08T22:45:02.961Z,23.17
2022-08-08T22:47:37.486Z,23.17
2022-08-08T22:50:21.588Z,23.17
2022-08-08T22:53:22.414Z,23.14
2022-08-08T22:55:57.923Z,23.15
2022-08-08T22:58:27.107Z,23.14
2022-08-08T23:00:55.122Z,23.14
2022-08-08T23:03:21.707Z,23.13
2022-08-08T23:05:50.012Z,23.13
2022-08-08T23:08:17.965Z,23.14
2022-08-08T23:10:52.726Z,23.16
2022-08-08T23:13:22.302Z,23.16
2022-08-08T23:16:41.605Z,23.15
2022-08-08T23:18:40.492Z,23.16
2022-08-08T23:21:07.737Z,23.16
2022-08-08T23:23:48.678Z,23.16
2022-08-08T23:26:21.449Z,23.15
2022-08-08T23:28:48.295Z,23.14
2022-08-08T23:31:14.957Z,23.13
2022-08-08T23:34:17.630Z,23.12
2022-08-08T23:36:29.013Z,23.11
2022-08-08T23:38:55.524Z,23.11
2022-08-08T23:41:25.343Z,23.10
2022-08-08T23:43:56.438Z,23.09
2022-08-08T23:49:04.181Z,23.08
2022-08-08T23:49:15.006Z,23.08
2022-08-08T23:52:05.323Z,23.08
2022-08-08T23:54:41.192Z,23.07
2022-08-08T23:57:25.367Z,23.07
